createdAt,value
2017-06-30T00:04:43.545Z,99.99
2017-06-30T00:09:38.988Z,99.99
2017-06-30T00:14:35.703Z,99.99
2017-06-30T00:19:31.463Z,99.99
2017-06-30T00:24:28.372Z,99.99
2017-06-30T00:29:24.084Z,99.99
2017-06-30T00:34:20.294Z,99.99
2017-06-30T00:39:15.976Z,99.99
2017-06-30T00:44:11.884Z,99.99
2017-06-30T00:49:07.817Z,99.99
2017-06-30T00:54:03.798Z,99.99
2017-06-30T00:58:59.616Z,99.99
2017-06-30T01:03:56.746Z,99.99
2017-06-30T01:08:54.138Z,99.99
2017-06-30T01:13:49.837Z,99.99
2017-06-30T01:18:45.446Z,99.99
2017-06-30T01:23:41.060Z,99.99
2017-06-30T01:28:37.355Z,99.99
2017-06-30T01:33:34.602Z,99.99
2017-06-30T01:38:30.025Z,99.99
2017-06-30T01:43:25.865Z,99.99
2017-06-30T01:48:21.729Z,99.99
2017-06-30T01:53:17.483Z,99.99
2017-06-30T01:58:14.477Z,99.99
2017-06-30T02:03:10.157Z,99.99
2017-06-30T02:08:05.974Z,99.99
2017-06-30T02:13:01.823Z,99.99
2017-06-30T02:17:57.576Z,99.99
2017-06-30T02:22:53.381Z,99.99
2017-06-30T02:27:49.090Z,99.99
2017-06-30T02:32:44.906Z,99.99
2017-06-30T02:37:41.270Z,99.99
2017-06-30T02:42:36.961Z,99.99
2017-06-30T02:47:32.786Z,99.99
2017-06-30T02:52:28.675Z,99.99
2017-06-30T02:57:25.584Z,99.99
2017-06-30T03:02:21.124Z,99.99
2017-06-30T03:07:17.276Z,99.99
2017-06-30T03:12:13.149Z,99.99
2017-06-30T03:17:08.828Z,99.99
2017-06-30T03:22:04.837Z,99.99
2017-06-30T03:27:01.616Z,99.99
2017-06-30T03:31:57.226Z,99.99
2017-06-30T03:36:53.066Z,99.99
2017-06-30T03:41:50.088Z,99.99
2017-06-30T03:46:45.626Z,99.99
2017-06-30T03:51:41.526Z,99.99
2017-06-30T03:56:37.861Z,99.99
2017-06-30T04:01:33.544Z,99.99
2017-06-30T04:06:29.293Z,99.99
2017-06-30T04:11:25.243Z,99.99
2017-06-30T04:16:21.209Z,99.99
2017-06-30T04:21:18.277Z,99.99
2017-06-30T04:26:15.088Z,99.99
2017-06-30T04:31:11.678Z,99.99
2017-06-30T04:36:07.194Z,99.99
2017-06-30T04:41:03.589Z,99.99
2017-06-30T04:46:00.716Z,99.99
2017-06-30T04:50:56.178Z,99.99
2017-06-30T04:55:51.974Z,99.99
2017-06-30T05:00:48.089Z,99.99
2017-06-30T05:05:44.084Z,99.99
2017-06-30T05:10:40.077Z,99.99
2017-06-30T05:15:36.129Z,99.99
2017-06-30T05:20:31.863Z,99.99
2017-06-30T05:25:29.273Z,99.99
2017-06-30T05:30:24.905Z,99.99
2017-06-30T05:35:20.792Z,99.99
2017-06-30T05:40:16.634Z,99.99
2017-06-30T05:45:12.693Z,99.99
2017-06-30T05:50:08.315Z,99.99
2017-06-30T05:55:04.795Z,99.99
2017-06-30T06:00:00.626Z,99.99
2017-06-30T06:04:56.871Z,99.99
2017-06-30T06:09:52.614Z,99.99
2017-06-30T06:14:48.833Z,99.99
2017-06-30T06:19:44.689Z,99.99
2017-06-30T06:24:41.074Z,99.99
2017-06-30T06:29:36.795Z,99.99
2017-06-30T06:34:32.660Z,99.99
2017-06-30T06:39:28.782Z,99.99
2017-06-30T06:44:25.677Z,99.68
2017-06-30T06:49:21.652Z,99.34
2017-06-30T06:54:17.639Z,99.39
2017-06-30T06:59:13.481Z,98.77
2017-06-30T07:04:09.178Z,99.44
2017-06-30T07:09:04.995Z,98.29
2017-06-30T07:14:01.856Z,98.38
2017-06-30T07:18:57.454Z,99.58
2017-06-30T07:23:52.993Z,99.99
2017-06-30T07:28:49.415Z,99.99
2017-06-30T07:33:44.648Z,99.99
2017-06-30T07:38:40.811Z,99.99
2017-06-30T07:43:37.997Z,99.99
2017-06-30T07:48:33.569Z,99.99
2017-06-30T07:53:29.099Z,99.99
2017-06-30T07:58:25.181Z,99.99
2017-06-30T08:03:21.153Z,99.99
2017-06-30T08:08:16.907Z,99.99
2017-06-30T08:13:12.602Z,99.99
2017-06-30T08:18:08.514Z,99.99
2017-06-30T08:23:04.556Z,99.99
2017-06-30T08:28:00.363Z,99.99
2017-06-30T08:32:56.540Z,99.99
2017-06-30T08:37:54.320Z,99.99
2017-06-30T08:42:50.596Z,99.99
2017-06-30T08:47:47.443Z,99.99
2017-06-30T08:52:43.426Z,99.30
2017-06-30T08:57:40.011Z,97.91
2017-06-30T09:02:36.189Z,96.66
2017-06-30T09:07:32.418Z,95.07
2017-06-30T09:12:28.517Z,94.11
2017-06-30T09:17:24.560Z,93.00
2017-06-30T09:22:21.850Z,91.66
2017-06-30T09:27:17.214Z,92.38
2017-06-30T09:32:14.918Z,93.58
2017-06-30T09:37:11.065Z,91.27
2017-06-30T09:42:06.844Z,91.85
2017-06-30T09:47:02.404Z,89.92
2017-06-30T09:51:58.293Z,90.98
2017-06-30T09:56:55.491Z,90.12
2017-06-30T10:01:52.396Z,90.16
2017-06-30T10:06:48.680Z,88.33
2017-06-30T10:11:45.349Z,88.91
2017-06-30T10:16:43.361Z,85.68
2017-06-30T10:21:39.436Z,85.91
2017-06-30T10:26:35.879Z,83.89
2017-06-30T10:31:30.970Z,84.95
2017-06-30T10:36:25.940Z,85.97
2017-06-30T10:41:21.603Z,86.26
2017-06-30T10:46:18.380Z,85.24
2017-06-30T10:51:14.753Z,84.09
2017-06-30T10:56:10.892Z,85.14
2017-06-30T11:01:07.697Z,84.43
2017-06-30T11:06:03.020Z,84.23
2017-06-30T11:10:58.459Z,85.58
2017-06-30T11:15:54.328Z,85.64
2017-06-30T11:20:50.180Z,84.58
2017-06-30T11:25:47.214Z,84.14
2017-06-30T11:30:44.325Z,81.45
2017-06-30T11:35:40.654Z,83.03
2017-06-30T11:40:37.794Z,80.62
2017-06-30T11:45:33.805Z,80.33
2017-06-30T11:50:30.767Z,79.41
2017-06-30T11:55:26.573Z,78.54
2017-06-30T12:00:23.844Z,77.42
2017-06-30T12:05:20.157Z,77.13
2017-06-30T12:10:16.430Z,75.74
2017-06-30T12:15:11.006Z,78.92
2017-06-30T12:20:06.867Z,77.38
2017-06-30T12:25:05.361Z,75.05
2017-06-30T12:30:04.286Z,73.35
2017-06-30T12:34:57.553Z,73.31
2017-06-30T12:39:52.169Z,75.01
2017-06-30T12:44:47.656Z,77.38
2017-06-30T12:49:43.658Z,75.10
2017-06-30T12:54:39.592Z,74.91
2017-06-30T12:59:35.290Z,75.20
2017-06-30T13:04:31.697Z,76.23
2017-06-30T13:09:26.577Z,79.08
2017-06-30T13:14:21.767Z,76.86
2017-06-30T13:19:17.391Z,78.46
2017-06-30T13:24:13.102Z,79.48
2017-06-30T13:29:09.415Z,81.16
2017-06-30T13:34:05.121Z,80.77
2017-06-30T13:39:02.157Z,85.20
2017-06-30T13:43:57.751Z,85.30
2017-06-30T13:48:53.728Z,86.74
2017-06-30T13:53:49.593Z,86.65
2017-06-30T13:58:45.983Z,86.22
2017-06-30T14:03:42.097Z,85.97
2017-06-30T14:08:38.139Z,84.91
2017-06-30T14:13:35.684Z,83.95
2017-06-30T14:18:31.522Z,85.30
2017-06-30T14:23:27.646Z,84.76
2017-06-30T14:28:23.425Z,80.14
2017-06-30T14:33:19.664Z,76.48
2017-06-30T14:38:16.009Z,73.82
2017-06-30T14:43:12.598Z,74.78
2017-06-30T14:48:08.811Z,72.56
2017-06-30T14:53:05.062Z,72.66
2017-06-30T14:58:00.948Z,71.89
2017-06-30T15:02:56.883Z,71.70
2017-06-30T15:07:52.950Z,71.98
2017-06-30T15:12:49.095Z,71.41
2017-06-30T15:17:44.748Z,69.83
2017-06-30T15:22:40.563Z,71.47
2017-06-30T15:27:36.065Z,71.56
2017-06-30T15:32:31.970Z,72.05
2017-06-30T15:37:29.288Z,72.14
2017-06-30T15:42:24.952Z,72.14
2017-06-30T15:47:21.688Z,73.10
2017-06-30T15:52:17.418Z,73.97
2017-06-30T15:57:13.179Z,73.78
2017-06-30T16:02:08.919Z,73.20
2017-06-30T16:07:04.924Z,72.14
2017-06-30T16:12:00.402Z,72.24
2017-06-30T16:16:56.295Z,72.53
2017-06-30T16:21:52.269Z,72.33
2017-06-30T16:26:48.267Z,71.37
2017-06-30T16:31:44.661Z,71.72
2017-06-30T16:36:40.431Z,73.10
2017-06-30T16:41:37.245Z,73.16
2017-06-30T16:46:32.734Z,73.01
2017-06-30T16:51:28.658Z,74.51
2017-06-30T16:56:24.455Z,75.19
2017-06-30T17:01:20.445Z,74.80
2017-06-30T17:06:15.899Z,74.99
2017-06-30T17:11:14.119Z,86.12
2017-06-30T17:16:09.268Z,91.17
2017-06-30T17:21:04.590Z,93.73
2017-06-30T17:26:00.030Z,96.22
2017-06-30T17:30:55.635Z,99.34
2017-06-30T17:35:51.064Z,99.99
2017-06-30T17:40:47.598Z,99.99
2017-06-30T17:45:43.312Z,99.99
2017-06-30T17:50:38.805Z,99.99
2017-06-30T17:55:34.984Z,99.99
2017-06-30T18:00:30.592Z,99.99
2017-06-30T18:05:27.236Z,99.99
2017-06-30T18:10:22.756Z,99.99
2017-06-30T18:15:18.597Z,99.99
2017-06-30T18:20:14.375Z,99.99
2017-06-30T18:25:10.102Z,99.99
2017-06-30T18:30:06.446Z,99.99
2017-06-30T18:35:02.232Z,99.99
2017-06-30T18:39:57.933Z,99.99
2017-06-30T18:44:53.761Z,99.99
2017-06-30T18:49:49.941Z,99.99
2017-06-30T18:54:45.804Z,99.99
2017-06-30T18:59:41.967Z,99.99
2017-06-30T19:04:37.672Z,99.99
2017-06-30T19:09:34.624Z,99.99
2017-06-30T19:14:30.162Z,99.99
2017-06-30T19:19:27.201Z,99.99
2017-06-30T19:24:22.590Z,99.99
2017-06-30T19:29:18.369Z,99.99
2017-06-30T19:34:13.945Z,99.99
2017-06-30T19:39:10.008Z,99.99
2017-06-30T19:44:05.656Z,99.99
2017-06-30T19:49:01.376Z,99.99
2017-06-30T19:53:57.235Z,99.99
2017-06-30T19:58:53.243Z,99.99
2017-06-30T20:03:49.152Z,99.99
2017-06-30T20:08:45.867Z,99.99
2017-06-30T20:13:41.607Z,99.99
2017-06-30T20:18:37.336Z,99.99
2017-06-30T20:23:34.352Z,99.99
2017-06-30T20:28:31.499Z,99.99
2017-06-30T20:33:27.016Z,99.99
2017-06-30T20:38:22.631Z,99.99
2017-06-30T20:43:18.314Z,99.99
2017-06-30T20:48:14.250Z,99.99
2017-06-30T20:53:09.978Z,99.99
2017-06-30T20:58:05.787Z,99.99
2017-06-30T21:03:02.401Z,99.99
2017-06-30T21:07:57.800Z,99.99
2017-06-30T21:12:53.621Z,99.99
2017-06-30T21:17:49.245Z,99.99
2017-06-30T21:22:44.547Z,99.99
2017-06-30T21:27:40.680Z,99.99
2017-06-30T21:32:36.992Z,99.99
2017-06-30T21:37:32.718Z,99.99
2017-06-30T21:42:29.731Z,99.99
2017-06-30T21:47:25.270Z,99.99
2017-06-30T21:52:22.357Z,99.99
2017-06-30T21:57:17.745Z,99.99
2017-06-30T22:02:14.100Z,99.99
2017-06-30T22:07:09.924Z,99.99
2017-06-30T22:12:05.820Z,99.99
2017-06-30T22:17:01.605Z,99.99
2017-06-30T22:21:57.169Z,99.99
2017-06-30T22:26:53.048Z,99.99
2017-06-30T22:31:49.693Z,99.99
2017-06-30T22:36:45.596Z,99.99
2017-06-30T22:41:41.409Z,99.99
2017-06-30T22:46:37.364Z,99.99
2017-06-30T22:51:32.702Z,99.99
2017-06-30T22:56:28.649Z,99.99
2017-06-30T23:01:24.691Z,99.99
2017-06-30T23:06:20.574Z,99.99
2017-06-30T23:11:18.043Z,99.99
2017-06-30T23:16:13.550Z,99.99
2017-06-30T23:21:09.721Z,99.99
2017-06-30T23:26:05.770Z,99.99
2017-06-30T23:31:01.536Z,99.99
2017-06-30T23:35:57.923Z,99.99
2017-06-30T23:40:54.149Z,99.99
2017-06-30T23:45:49.939Z,99.99
2017-06-30T23:50:45.744Z,99.99
2017-06-30T23:55:41.648Z,99.99
